Terminal Aerodrome Forecast
Issued by NWS North Platte, NE

Home | Current Version | Previous Version | Graphics & Text | Print | Product List | Glossary On
Versions: 1 2 3 4 5 6 7 8 9 10 11 12 13 14 15 16 17 18 19 20 21 22 23
000
FTUS43 KLBF 251400 AAA
TAFVTN
TAF AMD
KVTN 251410Z 2514/2612 03014KT P6SM OVC080
     FM251600 01014G20KT P6SM OVC030
     FM252100 01014G20KT P6SM OVC018
      TEMPO 2521/2601 2SM -SN BR OVC012
     FM260100 36016G24KT 2SM -SN BR OVC012=

USA.gov is the U.S. government's official web portal to all federal, state and local government web resources and services.